createdAt,value
2018-04-17T00:01:01.897Z,19.87
2018-04-17T00:03:29.370Z,19.63
2018-04-17T00:05:56.862Z,19.37
2018-04-17T00:08:24.356Z,20.67
2018-04-17T00:10:51.837Z,20.67
2018-04-17T00:13:19.295Z,20.97
2018-04-17T00:15:46.821Z,20.20
2018-04-17T00:18:14.274Z,20.77
2018-04-17T00:20:41.739Z,18.20
2018-04-17T00:23:09.222Z,21.40
2018-04-17T00:25:36.725Z,20.30
2018-04-17T00:28:04.221Z,20.37
2018-04-17T00:30:31.684Z,19.40
2018-04-17T00:32:59.188Z,20.43
2018-04-17T00:35:27.509Z,19.17
2018-04-17T00:37:54.963Z,21.63
2018-04-17T00:40:22.552Z,19.97
2018-04-17T00:42:50.020Z,19.60
2018-04-17T00:45:18.083Z,21.67
2018-04-17T00:47:45.618Z,20.13
2018-04-17T00:50:13.166Z,19.73
2018-04-17T00:52:40.614Z,20.73
2018-04-17T00:55:08.994Z,20.90
2018-04-17T00:57:37.245Z,20.70
2018-04-17T01:00:04.831Z,21.50
2018-04-17T01:02:33.011Z,21.83
2018-04-17T01:05:00.551Z,23.00
2018-04-17T01:07:27.986Z,22.00
2018-04-17T01:09:55.485Z,23.10
2018-04-17T01:12:23.188Z,23.03
2018-04-17T01:14:51.474Z,24.60
2018-04-17T01:17:19.011Z,21.93
2018-04-17T01:19:46.542Z,22.87
2018-04-17T01:22:14.064Z,23.03
2018-04-17T01:24:41.552Z,20.97
2018-04-17T01:27:09.729Z,22.77
2018-04-17T01:29:37.264Z,24.73
2018-04-17T01:32:05.530Z,23.70
2018-04-17T01:34:33.030Z,24.73
2018-04-17T01:37:00.525Z,25.00
2018-04-17T01:39:28.011Z,22.97
2018-04-17T01:41:55.509Z,24.80
2018-04-17T01:44:23.733Z,25.93
2018-04-17T01:46:51.301Z,24.27
2018-04-17T01:49:18.832Z,26.70
2018-04-17T01:51:46.476Z,26.37
2018-04-17T01:54:13.959Z,25.93
2018-04-17T01:56:41.452Z,27.37
2018-04-17T01:59:08.969Z,28.07
2018-04-17T02:01:36.430Z,28.37
2018-04-17T02:04:04.772Z,26.70
2018-04-17T02:06:32.237Z,27.10
2018-04-17T02:08:59.720Z,27.23
2018-04-17T02:11:28.090Z,25.70
2018-04-17T02:13:55.561Z,25.00
2018-04-17T02:16:23.104Z,25.70
2018-04-17T02:18:50.516Z,28.10
2018-04-17T02:21:18.068Z,26.23
2018-04-17T02:23:46.301Z,27.93
2018-04-17T02:26:13.855Z,27.43
2018-04-17T02:28:41.323Z,26.03
2018-04-17T02:31:08.920Z,26.77
2018-04-17T02:33:36.430Z,28.00
2018-04-17T02:36:05.826Z,29.30
2018-04-17T02:38:33.520Z,28.43
2018-04-17T02:41:01.039Z,28.57
2018-04-17T02:43:28.500Z,28.53
2018-04-17T02:45:56.766Z,26.60
2018-04-17T02:48:24.255Z,26.80
2018-04-17T02:50:51.778Z,27.93
2018-04-17T02:53:19.246Z,27.30
2018-04-17T02:55:46.753Z,30.00
2018-04-17T02:58:15.092Z,29.60
2018-04-17T03:00:42.535Z,29.73
2018-04-17T03:03:10.163Z,29.30
2018-04-17T03:05:38.403Z,27.77
2018-04-17T03:08:05.945Z,27.87
2018-04-17T03:10:33.438Z,27.80
2018-04-17T03:13:01.754Z,26.73
2018-04-17T03:15:29.218Z,27.17
2018-04-17T03:17:56.708Z,26.53
2018-04-17T03:20:24.240Z,27.97
2018-04-17T03:22:51.790Z,28.47
2018-04-17T03:25:20.043Z,28.10
2018-04-17T03:27:47.605Z,28.17
2018-04-17T03:30:15.123Z,27.33
2018-04-17T03:32:42.644Z,26.80
2018-04-17T03:35:10.221Z,29.70
2018-04-17T03:37:37.773Z,25.50
2018-04-17T03:40:05.281Z,27.50
2018-04-17T03:42:32.781Z,27.83
2018-04-17T03:45:00.270Z,27.23
2018-04-17T03:47:28.548Z,27.50
2018-04-17T03:49:56.847Z,25.13
2018-04-17T03:52:24.297Z,25.87
2018-04-17T03:54:51.882Z,26.40
2018-04-17T03:57:20.341Z,28.00
2018-04-17T03:59:47.822Z,27.67
2018-04-17T04:02:15.323Z,27.73
2018-04-17T04:04:42.819Z,27.17
2018-04-17T04:07:10.345Z,26.47
2018-04-17T04:09:37.817Z,27.43
2018-04-17T04:12:05.337Z,25.40
2018-04-17T04:14:33.559Z,25.40
2018-04-17T04:17:01.193Z,27.57
2018-04-17T04:19:28.632Z,27.60
2018-04-17T04:21:57.004Z,26.77
2018-04-17T04:24:24.507Z,25.50
2018-04-17T04:26:52.783Z,25.77
2018-04-17T04:29:20.250Z,27.30
2018-04-17T04:31:47.756Z,26.90
2018-04-17T04:34:15.270Z,26.77
2018-04-17T04:36:42.774Z,25.20
2018-04-17T04:39:10.301Z,24.07
2018-04-17T04:41:38.045Z,26.63
2018-04-17T04:44:06.330Z,25.83
2018-04-17T04:46:34.589Z,24.73
2018-04-17T04:49:02.160Z,25.67
2018-04-17T04:51:29.613Z,27.20
2018-04-17T04:53:57.202Z,28.33
2018-04-17T04:56:24.635Z,29.80
2018-04-17T04:58:52.242Z,31.70
2018-04-17T05:01:19.741Z,29.97
2018-04-17T05:03:47.234Z,32.60
2018-04-17T05:06:14.765Z,34.70
2018-04-17T05:08:42.265Z,35.00
2018-04-17T05:11:09.816Z,35.70
2018-04-17T05:13:37.278Z,34.73
2018-04-17T05:16:04.735Z,35.23
2018-04-17T05:18:32.274Z,31.23
2018-04-17T05:20:59.839Z,32.00
2018-04-17T05:23:28.058Z,27.77
2018-04-17T05:25:55.589Z,25.93
2018-04-17T05:28:23.098Z,26.43
2018-04-17T05:30:51.415Z,22.40
2018-04-17T05:33:18.893Z,21.37
2018-04-17T05:35:46.485Z,19.20
2018-04-17T05:38:13.945Z,19.03
2018-04-17T05:40:41.491Z,19.13
2018-04-17T05:43:08.982Z,18.03
2018-04-17T05:45:36.567Z,17.40
2018-04-17T05:48:04.821Z,16.57
2018-04-17T05:50:32.313Z,16.87
2018-04-17T05:53:00.610Z,16.50
2018-04-17T05:55:28.106Z,17.97
2018-04-17T05:57:55.585Z,17.70
2018-04-17T06:00:23.176Z,17.00
2018-04-17T06:02:50.626Z,16.83
2018-04-17T06:05:18.153Z,15.30
2018-04-17T06:07:45.644Z,16.20
2018-04-17T06:10:13.176Z,15.50
2018-04-17T06:12:40.800Z,15.33
2018-04-17T06:15:08.276Z,15.30
2018-04-17T06:17:36.636Z,14.63
2018-04-17T06:20:04.164Z,14.33
2018-04-17T06:22:31.633Z,15.40
2018-04-17T06:24:59.209Z,13.80
2018-04-17T06:27:26.665Z,15.40
2018-04-17T06:29:54.843Z,13.63
2018-04-17T06:32:22.369Z,14.93
2018-04-17T06:34:49.853Z,12.83
2018-04-17T06:37:17.375Z,14.43
2018-04-17T06:39:45.726Z,14.03
2018-04-17T06:42:13.215Z,13.77
2018-04-17T06:44:41.524Z,14.20
2018-04-17T06:47:09.012Z,14.23
2018-04-17T06:49:36.600Z,12.67
2018-04-17T06:52:04.108Z,12.90
2018-04-17T06:54:31.630Z,13.70
2018-04-17T06:56:59.126Z,13.07
2018-04-17T06:59:26.662Z,13.57
2018-04-17T07:01:54.160Z,14.43
2018-04-17T07:04:22.930Z,12.57
2018-04-17T07:06:51.220Z,13.40
2018-04-17T07:09:19.518Z,13.27
2018-04-17T07:11:47.040Z,12.73
2018-04-17T07:14:14.571Z,12.53
2018-04-17T07:16:42.136Z,12.40
2018-04-17T07:19:09.640Z,12.13
2018-04-17T07:21:37.219Z,12.20
2018-04-17T07:24:04.851Z,13.17
2018-04-17T07:26:32.343Z,12.87
2018-04-17T07:29:00.831Z,12.90
2018-04-17T07:31:29.111Z,11.67
2018-04-17T07:33:57.500Z,10.60
2018-04-17T07:36:24.982Z,12.10
2018-04-17T07:38:52.524Z,12.53
2018-04-17T07:41:19.961Z,12.70
2018-04-17T07:43:47.452Z,11.60
2018-04-17T07:46:15.876Z,12.80
2018-04-17T07:48:43.471Z,12.10
2018-04-17T07:51:11.089Z,13.00
2018-04-17T07:53:38.530Z,11.37
2018-04-17T07:56:06.056Z,13.20
2018-04-17T07:58:33.608Z,14.20
2018-04-17T08:01:01.647Z,12.90
2018-04-17T08:03:30.030Z,13.37
2018-04-17T08:05:58.288Z,11.13
2018-04-17T08:08:26.590Z,11.87
2018-04-17T08:10:54.161Z,12.20
2018-04-17T08:13:23.139Z,12.33
2018-04-17T08:15:51.413Z,11.50
2018-04-17T08:18:19.687Z,11.40
2018-04-17T08:20:47.213Z,12.27
2018-04-17T08:23:14.689Z,11.90
2018-04-17T08:25:42.198Z,11.97
2018-04-17T08:28:10.449Z,12.13
2018-04-17T08:30:38.397Z,11.87
2018-04-17T08:33:05.937Z,11.70
2018-04-17T08:35:33.464Z,10.70
2018-04-17T08:38:01.885Z,10.87
2018-04-17T08:40:29.701Z,12.77
2018-04-17T08:42:58.837Z,10.60
2018-04-17T08:45:26.366Z,10.97
2018-04-17T08:47:53.896Z,10.67
2018-04-17T08:50:21.602Z,11.87
2018-04-17T08:52:49.153Z,11.17
2018-04-17T08:55:16.747Z,11.43
2018-04-17T08:57:44.180Z,11.87
2018-04-17T09:00:11.721Z,12.00
2018-04-17T09:02:39.234Z,11.00
2018-04-17T09:05:07.493Z,11.60
2018-04-17T09:07:34.945Z,10.90
2018-04-17T09:10:02.540Z,10.03
2018-04-17T09:12:30.794Z,7.67
2018-04-17T09:14:58.334Z,7.07
2018-04-17T09:17:25.838Z,6.97
2018-04-17T09:19:53.446Z,8.37
2018-04-17T09:22:21.445Z,8.67
2018-04-17T09:24:48.897Z,7.03
2018-04-17T09:27:16.509Z,7.43
2018-04-17T09:29:44.089Z,9.73
2018-04-17T09:32:11.534Z,11.10
2018-04-17T09:34:39.240Z,11.10
2018-04-17T09:37:06.720Z,11.77
2018-04-17T09:39:34.236Z,11.23
2018-04-17T09:42:02.584Z,11.93
2018-04-17T09:44:30.053Z,9.93
2018-04-17T09:46:57.647Z,11.37
2018-04-17T09:49:25.234Z,10.50
2018-04-17T09:51:52.653Z,10.20
2018-04-17T09:54:20.192Z,9.73
2018-04-17T09:56:47.649Z,10.13
2018-04-17T09:59:15.210Z,11.13
2018-04-17T10:01:42.711Z,10.10
2018-04-17T10:04:10.265Z,10.63
2018-04-17T10:06:37.715Z,11.13
2018-04-17T10:09:05.375Z,11.77
2018-04-17T10:11:32.825Z,11.47
2018-04-17T10:14:01.064Z,10.30
2018-04-17T10:16:29.391Z,10.37
2018-04-17T10:18:56.987Z,8.00
2018-04-17T10:21:25.115Z,8.63
2018-04-17T10:23:52.588Z,8.87
2018-04-17T10:26:20.319Z,11.40
2018-04-17T10:28:47.755Z,9.93
2018-04-17T10:31:15.455Z,9.40
2018-04-17T10:33:43.757Z,9.23
2018-04-17T10:36:11.283Z,10.27
2018-04-17T10:38:38.809Z,9.77
2018-04-17T10:41:06.369Z,10.00
2018-04-17T10:43:33.899Z,8.80
2018-04-17T10:46:01.406Z,9.07
2018-04-17T10:48:28.931Z,8.37
2018-04-17T10:50:57.189Z,9.23
2018-04-17T10:53:24.706Z,9.43
2018-04-17T10:55:52.247Z,7.90
2018-04-17T10:58:19.760Z,6.37
2018-04-17T11:00:47.202Z,7.30
2018-04-17T11:03:15.299Z,7.70
2018-04-17T11:05:42.804Z,8.20
2018-04-17T11:08:10.285Z,7.30
2018-04-17T11:10:41.351Z,8.20
2018-04-17T11:13:08.961Z,8.00
2018-04-17T11:15:36.448Z,8.30
2018-04-17T11:18:04.017Z,9.13
2018-04-17T11:20:31.443Z,9.00
2018-04-17T11:22:58.978Z,8.40
2018-04-17T11:25:26.432Z,7.37
2018-04-17T11:27:53.900Z,7.27
2018-04-17T11:30:22.234Z,7.60
2018-04-17T11:32:49.737Z,8.13
2018-04-17T11:35:17.942Z,8.30
2018-04-17T11:37:45.707Z,6.20
2018-04-17T11:40:13.248Z,7.30
2018-04-17T11:42:40.766Z,7.50
2018-04-17T11:45:08.281Z,7.97
2018-04-17T11:47:35.746Z,8.27
2018-04-17T11:50:04.051Z,8.20
2018-04-17T11:52:31.594Z,7.17
2018-04-17T11:54:59.054Z,6.20
2018-04-17T11:57:27.346Z,8.20
2018-04-17T11:59:55.593Z,6.70
2018-04-17T12:02:23.804Z,7.17
2018-04-17T12:04:51.349Z,7.20
2018-04-17T12:07:18.902Z,7.20
2018-04-17T12:09:46.429Z,7.13
2018-04-17T12:12:13.957Z,7.40
2018-04-17T12:14:42.247Z,8.40
2018-04-17T12:17:10.595Z,7.87
2018-04-17T12:19:38.100Z,7.70
2018-04-17T12:22:05.645Z,6.83
2018-04-17T12:24:33.135Z,6.50
2018-04-17T12:27:00.691Z,6.60
2018-04-17T12:29:28.194Z,6.97
2018-04-17T12:31:56.365Z,5.80
2018-04-17T12:34:23.818Z,6.10
2018-04-17T12:36:51.446Z,6.50
2018-04-17T12:39:19.655Z,5.63
2018-04-17T12:41:47.285Z,6.03
2018-04-17T12:44:14.768Z,4.83
2018-04-17T12:46:42.275Z,5.90
2018-04-17T12:49:09.860Z,4.50
2018-04-17T12:51:37.292Z,4.30
2018-04-17T12:54:04.780Z,3.73
2018-04-17T12:56:32.532Z,4.03
2018-04-17T12:59:00.113Z,3.87
2018-04-17T13:01:27.700Z,4.50
2018-04-17T13:03:55.972Z,4.23
2018-04-17T13:06:23.498Z,4.33
2018-04-17T13:08:52.212Z,4.87
2018-04-17T13:11:19.899Z,5.17
2018-04-17T13:13:47.409Z,4.73
2018-04-17T13:16:15.787Z,4.33
2018-04-17T13:18:43.268Z,4.67
2018-04-17T13:21:10.886Z,3.90
2018-04-17T13:23:38.340Z,4.20
2018-04-17T13:26:06.606Z,4.43
2018-04-17T13:28:34.098Z,4.67
2018-04-17T13:31:02.429Z,4.93
2018-04-17T13:33:30.815Z,3.90
2018-04-17T13:35:58.222Z,4.50
2018-04-17T13:38:25.806Z,4.67
2018-04-17T13:40:53.292Z,4.80
2018-04-17T13:43:20.728Z,4.30
2018-04-17T13:45:48.256Z,4.40
2018-04-17T13:48:15.704Z,4.00
2018-04-17T13:50:43.256Z,3.47
2018-04-17T13:53:10.880Z,6.60
2018-04-17T13:55:38.983Z,5.30
2018-04-17T13:58:06.451Z,5.70
2018-04-17T14:00:33.942Z,5.60
2018-04-17T14:03:01.486Z,4.67
2018-04-17T14:05:28.952Z,4.77
2018-04-17T14:07:56.580Z,4.47
2018-04-17T14:10:24.967Z,4.47
2018-04-17T14:12:52.558Z,5.23
2018-04-17T14:15:20.817Z,6.00
2018-04-17T14:17:48.331Z,5.17
2018-04-17T14:20:15.833Z,5.10
2018-04-17T14:22:43.324Z,4.90
2018-04-17T14:25:11.014Z,4.30
2018-04-17T14:27:38.528Z,4.77
2018-04-17T14:30:06.039Z,4.87
2018-04-17T14:32:33.528Z,4.37
2018-04-17T14:35:01.880Z,4.57
2018-04-17T14:37:29.349Z,4.77
2018-04-17T14:39:56.830Z,4.60
2018-04-17T14:42:24.348Z,4.93
2018-04-17T14:44:51.913Z,4.43
2018-04-17T14:47:19.453Z,5.60
2018-04-17T14:49:46.948Z,6.10
2018-04-17T14:52:15.222Z,5.50
2018-04-17T14:54:43.072Z,5.00
2018-04-17T14:57:10.659Z,5.57
2018-04-17T14:59:38.179Z,4.33
2018-04-17T15:02:05.797Z,4.37
2018-04-17T15:04:33.269Z,4.27
2018-04-17T15:07:00.760Z,4.90
2018-04-17T15:09:28.255Z,4.50
2018-04-17T15:11:55.777Z,4.40
2018-04-17T15:14:23.326Z,4.60
2018-04-17T15:16:50.875Z,4.23
2018-04-17T15:19:18.544Z,4.53
2018-04-17T15:21:46.038Z,5.80
2018-04-17T15:24:13.633Z,4.90
2018-04-17T15:26:41.133Z,5.20
2018-04-17T15:29:08.754Z,5.67
2018-04-17T15:31:36.583Z,5.60
2018-04-17T15:34:04.032Z,5.13
2018-04-17T15:36:31.488Z,5.10
2018-04-17T15:38:59.007Z,6.07
2018-04-17T15:41:26.516Z,5.53
2018-04-17T15:43:53.992Z,5.90
2018-04-17T15:46:21.519Z,6.20
2018-04-17T15:48:48.992Z,6.20
2018-04-17T15:51:16.703Z,5.07
2018-04-17T15:53:44.209Z,6.43
2018-04-17T15:56:11.734Z,6.43
2018-04-17T15:58:39.235Z,4.97
2018-04-17T16:01:06.731Z,5.63
2018-04-17T16:03:34.300Z,5.60
2018-04-17T16:08:33.977Z,5.67
2018-04-17T16:11:02.241Z,5.13
2018-04-17T16:13:29.746Z,6.00
2018-04-17T16:15:57.253Z,4.70
2018-04-17T16:18:24.781Z,4.70
2018-04-17T16:20:52.311Z,5.70
2018-04-17T16:23:20.599Z,6.70
2018-04-17T16:25:48.860Z,6.40
2018-04-17T16:28:16.355Z,6.80
2018-04-17T16:30:44.645Z,5.83
2018-04-17T16:33:12.872Z,5.73
2018-04-17T16:35:40.413Z,5.10
2018-04-17T16:38:07.876Z,5.87
2018-04-17T16:40:35.333Z,6.47
2018-04-17T16:43:02.932Z,4.77
2018-04-17T16:45:30.458Z,5.53
2018-04-17T16:47:58.024Z,4.20
2018-04-17T16:50:25.639Z,5.30
2018-04-17T16:52:54.018Z,5.73
2018-04-17T16:55:21.819Z,6.30
2018-04-17T16:57:49.762Z,5.00
2018-04-17T17:00:17.262Z,5.20
2018-04-17T17:02:44.808Z,6.30
2018-04-17T17:05:12.417Z,6.80
2018-04-17T17:07:39.895Z,12.13
2018-04-17T17:10:07.434Z,15.63
2018-04-17T17:12:34.915Z,9.23
2018-04-17T17:15:03.289Z,8.53
2018-04-17T17:17:30.976Z,10.60
2018-04-17T17:19:58.618Z,7.63
2018-04-17T17:22:26.060Z,8.40
2018-04-17T17:24:53.778Z,9.20
2018-04-17T17:27:21.280Z,9.53
2018-04-17T17:29:50.715Z,11.43
2018-04-17T17:32:18.493Z,11.27
2018-04-17T17:34:45.973Z,11.20
2018-04-17T17:37:13.686Z,10.70
2018-04-17T17:39:41.787Z,11.10
2018-04-17T17:42:09.560Z,15.23
2018-04-17T17:44:37.016Z,13.03
2018-04-17T17:47:04.554Z,11.17
2018-04-17T17:49:32.781Z,10.20
2018-04-17T17:52:00.310Z,11.40
2018-04-17T17:54:27.852Z,13.00
2018-04-17T17:56:57.054Z,11.30
2018-04-17T17:59:24.528Z,10.13
2018-04-17T18:01:52.284Z,10.60
2018-04-17T18:04:20.569Z,11.73
2018-04-17T18:06:48.891Z,9.53
2018-04-17T18:09:16.433Z,9.70
2018-04-17T18:11:43.975Z,9.93
2018-04-17T18:14:12.325Z,9.93
2018-04-17T18:16:39.832Z,9.73
2018-04-17T18:19:07.300Z,9.73
2018-04-17T18:21:34.774Z,9.00
2018-04-17T18:24:02.326Z,9.97
2018-04-17T18:26:29.857Z,9.53
2018-04-17T18:28:58.247Z,9.47
2018-04-17T18:31:25.831Z,10.27
2018-04-17T18:33:53.334Z,9.87
2018-04-17T18:36:20.902Z,8.80
2018-04-17T18:38:48.537Z,8.13
2018-04-17T18:41:16.798Z,9.80
2018-04-17T18:43:44.310Z,9.77
2018-04-17T18:46:11.804Z,8.83
2018-04-17T18:48:40.649Z,10.10
2018-04-17T18:51:08.963Z,9.83
2018-04-17T18:53:36.422Z,9.27
2018-04-17T18:56:03.968Z,9.47
2018-04-17T18:58:31.480Z,9.50
2018-04-17T19:01:00.018Z,11.17
2018-04-17T19:03:28.269Z,10.67
2018-04-17T19:05:55.844Z,9.97
2018-04-17T19:08:23.529Z,10.00
2018-04-17T19:10:51.026Z,10.23
2018-04-17T19:13:18.575Z,10.93
2018-04-17T19:15:46.154Z,11.63
2018-04-17T19:18:13.845Z,11.23
2018-04-17T19:20:41.329Z,11.73
2018-04-17T19:23:08.816Z,11.43
2018-04-17T19:25:36.455Z,12.70
2018-04-17T19:28:05.226Z,12.50
2018-04-17T19:30:32.721Z,10.80
2018-04-17T19:33:00.356Z,13.30
2018-04-17T19:35:27.835Z,12.77
2018-04-17T19:37:56.188Z,13.27
2018-04-17T19:40:23.633Z,13.50
2018-04-17T19:42:51.207Z,13.63
2018-04-17T19:45:18.766Z,14.47
2018-04-17T19:47:47.055Z,12.63
2018-04-17T19:50:14.571Z,13.43
2018-04-17T19:52:42.068Z,13.50
2018-04-17T19:55:09.550Z,15.17
2018-04-17T19:57:37.079Z,16.20
2018-04-17T20:00:05.354Z,14.97
2018-04-17T20:02:32.831Z,15.67
2018-04-17T20:05:00.357Z,16.00
2018-04-17T20:07:27.893Z,17.37
2018-04-17T20:09:56.212Z,17.00
2018-04-17T20:12:23.751Z,15.87
2018-04-17T20:14:51.236Z,15.03
2018-04-17T20:17:18.836Z,16.20
2018-04-17T20:19:46.346Z,17.27
2018-04-17T20:22:13.888Z,17.90
2018-04-17T20:24:41.590Z,16.83
2018-04-17T20:27:09.132Z,19.20
2018-04-17T20:29:36.640Z,17.80
2018-04-17T20:32:04.235Z,17.17
2018-04-17T20:34:32.519Z,17.23
2018-04-17T20:37:00.637Z,16.50
2018-04-17T20:39:29.006Z,17.70
2018-04-17T20:41:56.570Z,17.13
2018-04-17T20:44:24.987Z,19.13
2018-04-17T20:46:52.672Z,18.53
2018-04-17T20:49:20.811Z,18.00
2018-04-17T20:51:48.323Z,18.53
2018-04-17T20:54:15.793Z,19.77
2018-04-17T20:56:43.299Z,19.07
2018-04-17T20:59:10.868Z,20.00
2018-04-17T21:01:39.197Z,20.60
2018-04-17T21:04:06.803Z,19.80
2018-04-17T21:06:34.314Z,22.70
2018-04-17T21:09:02.235Z,21.47
2018-04-17T21:11:30.787Z,21.70
2018-04-17T21:13:58.334Z,21.40
2018-04-17T21:16:25.862Z,21.40
2018-04-17T21:18:53.339Z,25.07
2018-04-17T21:21:20.954Z,22.87
2018-04-17T21:23:48.514Z,20.40
2018-04-17T21:26:16.004Z,22.63
2018-04-17T21:28:44.314Z,27.53
2018-04-17T21:31:11.933Z,28.80
2018-04-17T21:33:39.408Z,23.13
2018-04-17T21:36:06.894Z,22.20
2018-04-17T21:38:34.436Z,22.67
2018-04-17T21:41:01.945Z,20.60
2018-04-17T21:43:29.445Z,21.93
2018-04-17T21:45:56.949Z,24.20
2018-04-17T21:48:24.495Z,23.33
2018-04-17T21:50:52.047Z,24.47
2018-04-17T21:53:19.656Z,23.63
2018-04-17T21:55:47.125Z,23.10
2018-04-17T21:58:14.657Z,24.50
2018-04-17T22:00:42.181Z,21.57
2018-04-17T22:03:09.676Z,23.30
2018-04-17T22:05:38.692Z,22.67
2018-04-17T22:08:06.225Z,22.07
2018-04-17T22:10:33.721Z,21.70
2018-04-17T22:13:01.206Z,22.67
2018-04-17T22:15:28.725Z,22.40
2018-04-17T22:17:56.212Z,23.20
2018-04-17T22:20:23.714Z,23.70
2018-04-17T22:22:51.237Z,24.30
2018-04-17T22:25:18.771Z,20.03
2018-04-17T22:27:46.236Z,22.77
2018-04-17T22:30:14.592Z,23.33
2018-04-17T22:32:42.079Z,20.63
2018-04-17T22:35:09.713Z,23.07
2018-04-17T22:37:37.188Z,20.97
2018-04-17T22:40:04.847Z,20.37
2018-04-17T22:42:32.368Z,22.40
2018-04-17T22:44:59.903Z,21.10
2018-04-17T22:47:28.183Z,22.87
2018-04-17T22:49:55.669Z,23.50
2018-04-17T22:52:24.076Z,23.17
2018-04-17T22:54:52.275Z,22.07
2018-04-17T22:57:19.831Z,22.20
2018-04-17T22:59:47.311Z,21.70
2018-04-17T23:02:15.169Z,21.40
2018-04-17T23:04:42.760Z,23.30
2018-04-17T23:07:11.135Z,23.80
2018-04-17T23:09:38.650Z,25.70
2018-04-17T23:12:06.943Z,27.77
2018-04-17T23:14:34.701Z,27.73
2018-04-17T23:17:02.173Z,25.83
2018-04-17T23:19:29.894Z,27.20
2018-04-17T23:21:57.427Z,27.40
2018-04-17T23:24:24.987Z,25.43
2018-04-17T23:26:52.440Z,27.57
2018-04-17T23:29:19.960Z,25.73
2018-04-17T23:31:48.345Z,28.10
2018-04-17T23:34:15.889Z,28.80
2018-04-17T23:36:43.330Z,26.77
2018-04-17T23:39:10.887Z,27.30
2018-04-17T23:41:38.448Z,26.67
2018-04-17T23:44:06.118Z,25.53
2018-04-17T23:46:33.683Z,28.17
2018-04-17T23:49:01.508Z,28.00
2018-04-17T23:51:28.992Z,28.30
2018-04-17T23:53:56.559Z,26.17
2018-04-17T23:56:24.115Z,27.03
2018-04-17T23:58:51.640Z,27.87
